Park Valley, UT (84329)

10:32 AM MST on March 04, 2015 (GMT -0700)
Park Valley 1431A | Change Station
CLOSE
Current Station
Personal Weather Station
Location: Park Valley, UT
Elevation: 5535 ft
Nearby Weather Stations

Elev 5535 ft 41.82 °N, 113.33 °W | Updated 1 minute ago

Clear
Clear
29.4 °F
Feels Like 29 °F
N
2.0
Wind Variable Wind from SE
Gusts 2.0 mph

Today
High -- | Low -- °F
--% Chance of Precip.
Yesterday
High -- | Low -- °F
Precip. -- in
7:03 AM 6:26 PM
Waxing Gibbous, 99% visible
Pressure 29.08 in
Visibility 10.0 miles
Clouds Clear
Windchill 29 °F
Dew Point 11 °F
Humidity 46%
Rainfall 0.00 in
Snow Depth Not available.
UV 3 out of 12
Pollen 3.20 out of 12
Air Quality Not available.
Flu Activity Not available.
METAR KU16 041658Z AUTO 36003KT 10SM CLR 01/M09 A3019 RMK AO2 SLP845 T00061089 TSNO $

More Conditions Fewer Conditions

Pressure 29.08 in
Visibility 10.0 miles
Clouds Clear
Windchill 29 °F
Dew Point 11 °F
Humidity 46%
Rainfall 0.00 in
Snow Depth Not available.
UV 3 out of 12
Pollen 3.20 out of 12
Air Quality Not available.
Flu Activity Not available.
METAR KU16 041658Z AUTO 36003KT 10SM CLR 01/M09 A3019 RMK AO2 SLP845 T00061089 TSNO $

More Conditions Fewer Conditions

10-Day Weather Forecast

Almanac

Astronomy

Mar. 04, 2015 Rise Set
Actual Time
Civil Twilight
Nautical Twilight
Astronomical Twilight
Moon
Length of Visible Light
Length of Day
Tomorrow will be .
, % of the Moon is Illuminated

Today's Extremes

State Highs State Lows

Community

WunderPhotos

Upload Photos

1,802,514 photos uploaded!

WunderBlogs® & News

Nearby

Air Quality

  Air Quality AQ Index Pollutant
Not available.

Snow Depth

Station Depth Elevation

Earthquake Activity

City Distance Mag. Time & Date
Minimum magnitude displayed is 2.5.

Coastal Water Temperatures

Place Temperature

Nearby Weather Stations